Latest Coastal Weather Observations for Hervey Bay

IDQ60701

Issued at 3:52 pm EST Monday 19 February 2018 (issued every 10 minutes, with the page automatically refreshed every 10 minutes)

About coastal observations | Map of coastal stations | Coastal observations for QLD | Marine services | Other Formats
Station Details ID: 040405 Name: HERVEY BAY AIRPORT Lat: -25.32 Lon: 152.88 Height: 12.98 m
Data from the previous 72 hours. | See also: Recent months at Hervey Bay
Date/Time
EST
Temp
°C
Wind Pressure Rain since
9am
mm
Weather Cloud Vis
km
Sea
Height
m
Swell
Dir  Spd
kts
Gust
kts
hPa Trend Height
m
Period
s
Dir
19/03:30pm 30.5 E 8 12 1006.3 - 0.0 - - 10 - - - -
19/03:00pm 30.7 E 9 12 1006.5 - 0.0 - - 10 - - - -
19/02:30pm 30.7 ENE 8 13 1006.8 - 0.0 - Partly cloudy 10 - - - -
19/02:00pm 31.1 NE 10 14 1007.0 - 0.0 - Partly cloudy 10 - - - -
19/01:30pm 31.7 E 9 12 1007.5 - 0.0 - Partly cloudy 10 - - - -
19/01:00pm 31.1 ESE 8 11 1007.8 - 0.0 - Partly cloudy 10 - - - -
19/12:30pm 30.7 NW 7 11 1008.1 - 0.0 - - 10 - - - -
19/12:00pm 30.5 S 6 15 1008.6 - 0.0 - Mostly clear 10 - - - -
19/11:30am 29.4 ESE 5 8 1009.0 - 0.0 - Partly cloudy 10 - - - -
19/11:00am 29.3 SSE 6 9 1009.4 - 0.0 - - 10 - - - -
19/10:30am 28.6 S 4 7 1009.7 - 0.0 - Partly cloudy 10 - - - -
19/10:00am 28.0 SSW 4 6 1009.9 - 0.0 - Partly cloudy 10 - - - -
19/09:30am 26.6 SW 5 8 1010.1 - 0.0 - Partly cloudy 10 - - - -
19/09:00am 26.6 S 7 10 1010.2 - 0.0 - Mostly clear 10 - - - -
19/08:30am 26.3 SSW 7 10 1010.0 - 0.0 - - 10 - - - -
19/08:00am 25.1 SSW 9 11 1010.0 - 0.0 - - 10 - - - -
19/07:30am 23.8 SSW 7 10 1010.0 - 0.0 - - 10 - - - -
19/07:00am 22.5 SW 6 9 1009.8 - 0.0 - - 10 - - - -
19/06:30am 21.6 SW 4 6 1009.4 - 0.0 - - 10 - - - -
19/06:00am 20.7 WSW 4 5 1009.0 - 0.0 - - 9 - - - -
19/05:30am 21.0 SW 5 7 1008.8 - 0.0 - - 10 - - - -
19/05:00am 21.1 SW 5 7 1008.5 - 0.0 - - 10 - - - -
19/04:30am 21.1 SW 5 6 1008.2 - 0.0 - - 10 - - - -
19/04:00am 21.1 SW 4 6 1007.9 - 0.0 - - 10 - - - -
19/03:30am 21.0 SW 3 4 1007.8 - 0.0 - - 10 - - - -
19/03:00am 21.2 SW 4 5 1007.9 - 0.0 - - 10 - - - -
19/02:30am 21.5 SW 4 5 1008.0 - 0.0 - - 10 - - - -
19/02:00am 21.7 SW 5 6 1008.2 - 0.0 - - 10 - - - -
19/01:30am 21.8 SW 4 6 1008.4 - 0.0 - - 10 - - - -
19/01:00am 22.0 SW 5 7 1008.7 - 0.0 - - 10 - - - -
19/12:30am 22.3 SW 5 6 1008.8 - 0.0 - Partly cloudy 10 - - - -
19/12:00am 22.3 SW 4 5 1009.1 - 0.0 - - 10 - - - -
 
Date/Time
EST
Temp
°C
Wind Pressure Rain since
9am
mm
Weather Cloud Vis
km
Sea
Height
m
Swell
Dir  Spd
kts
Gust
kts
hPa Trend Height
m
Period
s
Dir
18/11:30pm 22.8 SSW 4 5 1009.2 - 0.0 - - 10 - - - -
18/11:00pm 23.3 SSW 5 6 1009.2 - 0.0 - - 10 - - - -
18/10:30pm 24.3 SSE 5 8 1009.5 - 0.0 - - 10 - - - -
18/10:00pm 24.8 SSE 5 8 1009.7 - 0.0 - - 10 - - - -
18/09:30pm 24.7 SSE 4 5 1009.7 - 0.0 - - 10 - - - -
18/09:00pm 24.8 SSE 4 6 1009.7 - 0.0 - - 10 - - - -
18/08:30pm 25.1 SSE 5 7 1009.6 - 0.0 - - 10 - - - -
18/08:00pm 25.2 SE 5 7 1009.4 - 0.0 - - 10 - - - -
18/07:30pm 25.4 SE 5 7 1009.4 - 0.0 - - 10 - - - -
18/07:00pm 25.8 SE 6 8 1009.1 - 0.0 - - 10 - - - -
18/06:30pm 26.3 SE 9 15 1008.9 - 0.0 - - 10 - - - -
18/06:00pm 27.0 SE 9 15 1008.7 - 0.0 - - 10 - - - -
18/05:30pm 27.8 SE 9 15 1008.6 - 0.0 - - 10 - - - -
18/05:00pm 28.4 SE 11 16 1008.5 - 0.0 - - 10 - - - -
18/04:30pm 28.9 SE 11 18 1008.3 - 0.0 - - 10 - - - -
18/04:00pm 29.4 SE 13 20 1008.3 - 0.0 - - 10 - - - -
18/03:30pm 30.2 SE 11 16 1008.3 - 0.0 - - 10 - - - -
18/03:00pm 30.6 SE 11 18 1008.4 - 0.0 - - 10 - - - -
18/02:30pm 30.5 SSE 11 17 1008.6 - 0.0 - Partly cloudy 10 - - - -
18/02:00pm 31.0 SSE 9 13 1008.9 - 0.0 - Partly cloudy 10 - - - -
18/01:30pm 31.1 ESE 10 16 1009.2 - 0.0 - - 10 - - - -
18/01:00pm 30.8 SE 11 15 1009.5 - 0.0 - Partly cloudy 10 - - - -
18/12:30pm 30.3 SSE 10 16 1010.0 - 0.0 - Partly cloudy 10 - - - -
18/12:00pm 30.3 SSW 9 14 1010.3 - 0.0 - Mostly cloudy 10 - - - -
18/11:30am 29.4 S 7 11 1010.6 - 0.0 - Partly cloudy 10 - - - -
18/11:00am 29.6 S 9 14 1010.9 - 0.0 - Partly cloudy 10 - - - -
18/10:30am 29.5 SSE 6 12 1011.1 - 0.0 - Partly cloudy 10 - - - -
18/10:00am 28.2 S 9 14 1011.2 - 0.0 - Partly cloudy 10 - - - -
18/09:30am 28.9 SE 9 13 1011.4 - 0.0 - Partly cloudy 10 - - - -
18/09:00am 27.6 S 7 11 1011.5 - 0.0 - Mostly clear 10 - - - -
18/08:30am 26.6 SW 7 9 1011.5 - 0.0 - - 10 - - - -
18/08:00am 25.0 SSW 7 9 1011.3 - 0.0 - - 10 - - - -
18/07:30am 23.9 SW 8 10 1011.1 - 0.0 - - 10 - - - -
18/07:00am 23.2 SSW 7 8 1010.9 - 0.0 - - 10 - - - -
18/06:30am 22.3 SW 5 7 1010.5 - 0.0 - Partly cloudy 10 - - - -
18/06:00am 21.5 SW 5 8 1010.2 - 0.0 - Mostly clear 10 - - - -
18/05:30am 21.3 SW 4 6 1009.9 - 0.0 - Partly cloudy 10 - - - -
18/05:00am 21.3 WSW 4 5 1009.8 - 0.0 - - 10 - - - -
18/04:30am 21.7 SW 5 6 1009.6 - 0.0 - - 10 - - - -
18/04:00am 21.5 SW 5 7 1009.7 - 0.0 - - 10 - - - -
18/03:30am 21.7 SW 5 6 1009.6 - 0.0 - - 10 - - - -
18/03:00am 21.6 SW 4 6 1009.6 - 0.0 - - 10 - - - -
18/02:30am 21.8 SSW 4 5 1009.5 - 0.0 - Partly cloudy 10 - - - -
18/02:00am 22.0 SW 4 6 1009.8 - 0.0 - - 10 - - - -
18/01:30am 22.1 SW 5 6 1010.0 - 0.0 - - 10 - - - -
18/01:00am 22.5 SW 5 6 1010.3 - 0.0 - Partly cloudy 10 - - - -
18/12:30am 22.4 SW 4 5 1010.5 - 0.0 - - 10 - - - -
18/12:00am 22.9 S 4 5 1010.8 - 0.0 - Mostly clear 10 - - - -
 
Date/Time
EST
Temp
°C
Wind Pressure Rain since
9am
mm
Weather Cloud Vis
km
Sea
Height
m
Swell
Dir  Spd
kts
Gust
kts
hPa Trend Height
m
Period
s
Dir
17/11:30pm 23.3 SSW 5 6 1011.2 - 0.0 - Partly cloudy 10 - - - -
17/11:00pm 23.8 S 4 5 1011.2 - 0.0 - - 10 - - - -
17/10:30pm 24.1 S 4 5 1011.5 - 0.0 - - 10 - - - -
17/10:00pm 24.7 SSE 5 9 1011.6 - 0.0 - - 10 - - - -
17/09:30pm 24.8 SSE 4 7 1011.7 - 0.0 - - 10 - - - -
17/09:00pm 25.1 SE 5 8 1011.5 - 0.0 - - 10 - - - -
17/08:30pm 25.4 SE 7 10 1011.4 - 0.0 - - 10 - - - -
17/08:00pm 25.6 SE 7 12 1010.9 - 0.0 - - 10 - - - -
17/07:30pm 25.8 SE 8 13 1010.6 - 0.0 - - 10 - - - -
17/07:00pm 25.9 SE 7 11 1010.5 - 0.0 - Partly cloudy 10 - - - -
17/06:30pm 26.2 SE 7 12 1010.3 - 0.0 - Partly cloudy 10 - - - -
17/06:00pm 27.0 SE 8 13 1009.9 - 0.0 - Partly cloudy 10 - - - -
17/05:30pm 27.2 ESE 11 18 1009.6 - 0.0 - Partly cloudy 10 - - - -
17/05:00pm 27.7 SE 11 19 1009.2 - 0.0 - Partly cloudy 10 - - - -
17/04:30pm 28.3 SE 11 17 1009.1 - 0.0 - - 10 - - - -
17/04:00pm 29.2 SE 11 18 1009.0 - 0.0 - Partly cloudy 10 - - - -
17/03:30pm 29.4 ESE 11 17 1009.0 - 0.0 - - 10 - - - -
17/03:00pm 29.5 ESE 13 20 1009.0 - 0.0 - - 10 - - - -
17/02:30pm 29.6 SE 12 17 1009.1 - 0.0 - Partly cloudy 10 - - - -
17/02:00pm 29.4 SE 11 16 1009.4 - 0.0 - - 10 - - - -
17/01:30pm 29.7 SE 11 18 1009.5 - 0.0 - - 10 - - - -
17/01:00pm 29.9 SE 10 17 1009.6 - 0.0 - Partly cloudy 10 - - - -
17/12:30pm 29.3 SSE 10 15 1010.0 - 0.0 - Partly cloudy 10 - - - -
17/12:00pm 29.4 ESE 11 17 1010.1 - 0.0 - Mostly clear 10 - - - -
17/11:30am 29.1 SE 10 17 1010.4 - 0.0 - Partly cloudy 10 - - - -
17/11:00am 28.8 SE 10 14 1010.5 - 0.0 - Partly cloudy 10 - - - -
17/10:30am 28.2 SE 8 13 1010.9 - 0.0 - Partly cloudy 10 - - - -
17/10:00am 28.3 SE 8 13 1010.9 - 0.0 - Partly cloudy 10 - - - -
17/09:30am 28.9 SE 8 11 1011.0 - 0.0 - Partly cloudy 10 - - - -
17/09:00am 28.3 SE 5 9 1011.0 - 21.0 Recent precip. Mostly cloudy 10 - - - -
17/08:30am 26.4 S 5 7 1010.9 - 20.8 - - 10 - - - -
17/08:00am 25.1 SSW 6 9 1010.7 - 20.8 - Partly cloudy 10 - - - -
17/07:30am 23.3 SW 5 8 1010.7 - 20.8 - Partly cloudy 10 - - - -
17/07:00am 22.7 SW 6 9 1010.2 - 20.8 - Partly cloudy 10 - - - -
17/06:30am 21.7 SSW 7 9 1010.1 - 20.8 - Partly cloudy 10 - - - -
17/06:00am 21.4 SW 6 9 1009.7 - 20.8 - - 10 - - - -
17/05:30am 21.3 SSW 5 7 1009.5 - 20.8 - Partly cloudy 10 - - - -
17/05:00am 21.2 WSW 5 6 1009.2 - 20.8 - Partly cloudy 10 - - - -
17/04:30am 21.4 SW 6 8 1008.8 - 20.8 - Partly cloudy 10 - - - -
17/04:00am 21.4 SW 6 8 1008.5 - 20.8 - - 10 - - - -
17/03:30am 21.5 WSW 5 6 1008.4 - 20.8 - Partly cloudy 10 - - - -
17/03:00am 21.6 SW 3 6 1008.3 - 20.8 - Mostly cloudy 10 - - - -
17/02:30am 21.5 S 5 6 1008.3 - 20.8 - Partly cloudy 10 - - - -
17/02:00am 22.3 SW 6 8 1007.9 - 20.8 - Partly cloudy 10 - - - -
17/01:30am 22.2 S 8 11 1008.3 - 20.8 - - 10 - - - -
17/01:00am 22.1 NNE 5 9 1008.2 - 20.8 - Partly cloudy 10 - - - -
17/12:30am 21.9 W 13 22 1007.1 - 20.8 - Partly cloudy 10 - - - -
17/12:09am 22.6 WNW 11 24 1007.4 - 20.8 - Partly cloudy 10 - - - -
17/12:00am 23.5 N 7 11 1006.4 - 20.8 - Cloudy 10 - - - -
 
Date/Time
EST
Temp
°C
Wind Pressure Rain since
9am
mm
Weather Cloud Vis
km
Sea
Height
m
Swell
Dir  Spd
kts
Gust
kts
hPa Trend Height
m
Period
s
Dir
16/11:30pm 23.6 ESE 5 7 1007.8 - 20.8 - Partly cloudy 10 - - - -
16/11:00pm 22.4 S 6 8 1009.4 - 20.8 - Partly cloudy 10 - - - -
16/10:30pm 21.9 SSE 6 9 1010.2 - 19.8 - Partly cloudy 10 - - - -
16/10:00pm 21.7 S 5 9 1010.9 - 18.8 - Partly cloudy 10 - - - -
16/09:41pm 21.7 S 8 13 1011.4 - 18.6 - Partly cloudy 10 - - - -
16/09:30pm 21.5 S 11 17 1011.6 - 18.4 - Partly cloudy 5 - - - -
16/09:10pm 21.8 SSW 13 24 1011.6 - 12.4 - Partly cloudy 2 - - - -
16/09:00pm 22.1 SW 14 23 1011.7 - 7.6 Rain Cloudy 2 - - - -
16/08:58pm 22.3 SW 14 23 1011.7 - 7.2 - Partly cloudy 2 - - - -
16/08:51pm 23.1 WSW 16 29 1011.5 - 2.4 - Partly cloudy 4 - - - -
16/08:45pm 25.9 W 9 28 1010.7 - 0.0 - Partly cloudy 10 - - - -
16/08:30pm 27.3 WNW 5 7 1009.7 - 0.0 - Partly cloudy 10 - - - -
16/08:00pm 27.4 NNW 8 12 1009.1 - 0.0 - Partly cloudy 10 - - - -
16/07:30pm 27.6 NNW 8 10 1009.2 - 0.0 - Partly cloudy 10 - - - -
16/07:20pm 27.5 N 7 12 1009.1 - 0.0 - Partly cloudy 10 - - - -
16/07:00pm 27.4 N 9 13 1007.7 - 0.0 - Partly cloudy 10 - - - -
16/06:31pm 27.3 N 8 13 1007.6 - 0.0 - Partly cloudy 10 - - - -
16/06:30pm 27.4 N 8 13 1007.5 - 0.0 - Partly cloudy 10 - - - -
16/06:25pm 27.4 N 10 13 1007.1 - 0.0 - Partly cloudy 10 - - - -
16/06:00pm 27.4 N 10 14 1006.9 - 0.0 - Partly cloudy 10 - - - -
16/05:46pm 27.4 N 9 15 1007.1 - 0.0 - Partly cloudy 10 - - - -
16/05:30pm 27.6 N 10 14 1007.2 - 0.0 - Partly cloudy 10 - - - -
16/05:00pm 27.7 N 10 16 1006.9 - 0.0 - Partly cloudy 10 - - - -
16/04:30pm 28.2 N 10 17 1006.9 - 0.0 - - 10 - - - -
16/04:00pm 28.8 N 12 19 1006.6 - 0.0 - Partly cloudy 10 - - - -

Other Formats:

Comma delimited format used in spreadsheet applications
http://www.bom.gov.au/fwo/IDQ60701/IDQ60701.95565.axf

JavaScript Object Notation format (JSON) in row-major order
http://www.bom.gov.au/fwo/IDQ60701/IDQ60701.95565.json